Allendale, Indiana
Current Conditions -  °F | °C
As of 11:53 AM on Friday 24 Oct 2014 (Local Time) from KHUF Reporting Station
Few Clouds Few Clouds  
Wind Chill: 58°   Ceiling: Unl
Heat Index: 58°   Visibility: 10mi
Dew Point: 48°   Wind: 3mph
Humidity: 70%   Direction: 230°SW
Pressure: 30.11"   Gusts: NA
Location:  39.3587°N, 87.4056°W
Report Text: KHUF 241553Z 23003KT 10SM FEW050 14/09 A3011 RMK AO2 SLP197 T01440089
Loading
Personal Weather Stations






























Interactive Weather Map
Tropical Storm Tracking
New forecast layout! Learn more

10-Day Weather Forecast

Advertisements
Track Severe Weather on mobile